Date,TemperatureHighF,TemperatureAvgF,TemperatureLowF,DewpointHighF,DewpointAvgF,DewpointLowF,HumidityHigh,HumidityAvg,HumidityLow,PressureMaxIn,PressureMinIn,WindSpeedMaxMPH,WindSpeedAvgMPH,GustSpeedMaxMPH,PrecipitationSumIn
2013-3-17,70.3,62.0,52.6,53.8,49.4,41.9,83,64,46,29.97,29.86,6,1,13,0.00
2013-3-18,59.8,53.1,44.9,55.9,49.8,43.6,95,89,75,29.95,29.77,10,1,23,0.58
2013-3-19,61.0,51.2,42.8,46.7,35.6,24.9,100,61,29,30.07,29.86,6,2,16,0.00
2013-3-20,56.6,47.9,41.2,28.9,21.3,12.4,55,36,20,30.12,29.90,9,2,17,0.00
2013-3-21,46.5,38.8,29.6,29.3,17.3,6.0,71,45,22,29.98,29.90,9,3,16,0.00
2013-3-22,49.2,42.3,34.6,35.2,27.5,18.5,69,56,47,30.07,29.97,3,0,5,0.00
2013-3-23,54.7,47.9,42.5,49.5,43.9,34.4,100,87,61,30.02,29.74,10,2,10,0.85
2013-3-24,50.6,48.0,42.2,48.6,45.1,32.3,95,90,68,29.77,29.50,25,5,25,0.53
2013-3-25,42.2,37.7,34.5,32.8,25.6,22.8,71,61,52,30.08,29.68,26,9,26,0.00
2013-3-26,41.1,36.1,32.4,27.6,25.3,22.6,79,65,52,30.30,30.05,16,6,16,0.00
2013-3-27,52.6,40.6,29.0,27.7,25.4,23.2,86,58,34,30.36,30.25,12,4,12,0.00
2013-3-28,59.3,45.4,30.9,33.2,27.8,18.6,86,55,23,30.35,30.24,12,2,12,0.00
2013-3-29,67.2,51.1,34.7,35.6,32.7,28.3,89,55,28,30.33,30.16,10,2,10,0.00
2013-3-30,72.0,58.4,47.8,54.4,42.7,33.2,94,58,37,30.17,29.99,9,2,9,0.40
2013-3-31,66.9,59.9,55.3,60.9,55.3,53.2,100,85,64,30.00,29.83,12,2,12,0.26
2013-4-1,71.0,61.7,53.2,55.6,46.7,35.8,94,63,32,30.00,29.83,17,3,17,0.00
2013-4-2,64.7,54.1,45.2,40.7,33.5,24.0,75,49,23,30.15,29.99,12,3,12,0.00
2013-4-3,59.2,50.9,43.3,44.3,33.2,26.3,88,53,34,30.17,30.07,9,2,9,0.05
2013-4-4,46.2,42.4,39.7,43.0,39.7,37.5,93,90,85,30.14,29.97,15,5,15,0.10
2013-4-5,65.0,51.2,40.3,47.4,40.6,36.0,95,71,37,30.05,29.94,12,3,12,0.01
2013-4-6,70.6,56.7,39.2,45.4,38.2,33.6,92,55,27,30.18,30.05,9,2,9,0.00
2013-4-7,74.2,61.1,47.7,51.4,45.5,40.6,82,59,36,30.18,30.03,10,2,10,0.00
2013-4-8,77.5,65.1,52.6,56.7,51.8,48.3,88,65,42,30.12,30.01,12,2,12,0.00
2013-4-9,80.3,67.3,53.1,59.4,54.6,50.2,93,67,42,30.16,30.02,9,1,9,0.00
2013-4-10,83.2,69.9,55.4,60.2,56.0,52.4,92,64,40,30.08,29.88,9,1,9,0.00
2013-4-11,79.3,68.3,58.9,67.3,59.8,54.0,95,76,56,29.90,29.57,16,2,16,1.61
2013-4-12,67.2,60.8,53.7,62.9,49.8,38.4,100,71,36,29.90,29.61,20,5,20,0.18
2013-4-13,74.6,61.9,51.7,45.4,39.5,32.0,71,47,24,30.02,29.89,13,3,13,0.00
2013-4-14,60.2,54.4,47.1,55.3,47.9,40.8,93,79,59,30.03,29.86,10,1,10,0.12
2013-4-15,71.9,61.5,55.8,58.8,56.3,53.0,95,84,61,30.11,29.91,5,0,5,0.00
2013-4-16,79.4,68.9,60.6,63.7,60.8,57.4,94,77,56,30.21,30.11,7,1,7,0.00
2013-4-17,84.2,71.3,62.4,66.5,61.9,59.5,92,74,49,30.18,30.03,9,1,9,0.00
2013-4-18,79.5,70.2,60.8,61.6,59.1,56.6,94,70,48,30.04,29.85,13,2,13,0.00
2013-4-19,71.8,58.2,44.5,65.2,53.0,39.6,93,83,64,30.01,29.72,16,4,16,0.88
2013-4-20,62.6,50.2,38.3,40.5,34.4,31.1,83,57,32,30.23,30.01,13,4,13,0.04
2013-4-21,67.6,55.1,41.3,42.8,38.8,35.4,87,57,34,30.32,30.21,12,2,12,0.00
2013-4-22,67.7,58.2,49.0,48.8,42.8,37.0,73,57,43,30.29,30.12,9,3,9,0.00
2013-4-23,72.2,59.8,46.1,51.8,43.9,37.4,79,57,39,30.21,30.04,8,2,8,0.00
2013-4-24,75.3,62.1,53.5,61.9,55.7,49.2,94,81,52,30.12,30.03,20,2,20,0.06
2013-4-25,69.5,55.7,43.9,52.0,40.8,29.7,90,63,27,30.30,30.11,13,3,13,0.00
2013-4-26,74.0,58.2,40.4,50.5,41.2,35.0,90,58,30,30.36,30.22,9,1,9,0.00
2013-4-27,67.8,61.5,56.1,55.8,51.6,43.9,87,71,50,30.31,30.10,8,3,8,0.00
2013-4-28,58.4,56.7,55.5,58.4,56.1,54.1,100,98,87,30.17,29.98,8,1,8,1.45
2013-4-29,71.3,61.0,55.1,62.0,57.2,55.1,100,89,58,30.03,29.90,5,0,5,0.01
2013-4-30,76.7,64.2,54.5,63.6,57.7,52.6,100,81,50,30.06,29.93,5,0,5,0.00
2013-5-1,67.8,63.2,60.5,59.8,56.5,53.7,92,79,65,30.16,30.05,8,3,8,0.00
2013-5-2,65.0,61.0,58.7,59.1,56.4,53.7,90,85,79,30.16,30.09,10,4,10,0.00
2013-5-3,62.1,59.8,58.1,56.8,55.4,52.3,92,86,77,30.10,29.93,12,4,12,0.00
2013-5-4,59.5,53.3,49.4,54.4,51.1,47.7,96,93,81,29.94,29.83,12,4,12,1.26
2013-5-5,64.4,54.6,48.5,56.2,51.1,46.8,97,89,58,29.83,29.72,10,1,10,1.42
2013-5-6,55.7,50.3,46.1,51.2,48.1,44.7,96,92,76,29.88,29.78,8,1,8,0.24
2013-5-7,67.6,57.3,49.7,54.6,51.3,48.6,96,82,55,29.96,29.85,13,2,13,0.01
2013-5-8,75.2,63.0,50.5,58.6,54.6,48.4,95,76,54,30.04,29.94,13,2,13,0.01
2013-5-9,81.6,68.2,56.2,60.2,56.8,53.4,95,71,40,30.09,30.00,5,0,12,0.00
2013-5-10,77.3,67.2,56.2,61.9,58.2,53.9,95,74,52,30.06,29.92,5,0,10,0.00
2013-5-11,74.9,66.2,58.8,66.1,61.2,56.3,95,85,68,29.96,29.84,5,0,14,0.11
2013-5-12,68.7,59.9,51.5,59.7,46.5,34.5,94,65,32,30.08,29.90,6,1,15,0.01
2013-5-13,68.5,55.8,41.8,43.1,37.9,32.3,89,55,29,30.22,30.08,6,1,14,0.00
2013-5-14,79.4,62.5,43.8,57.3,48.0,40.8,91,63,38,30.24,30.08,6,1,12,0.00
2013-5-15,86.0,70.8,57.6,59.7,56.0,52.5,88,63,33,30.14,29.98,6,1,14,0.00
2013-5-16,81.9,69.4,60.2,64.0,59.6,56.9,91,73,45,30.06,29.94,3,0,7,0.00
2013-5-17,81.6,69.3,58.7,64.9,59.6,53.4,93,74,39,30.06,29.98,3,0,8,0.04
2013-5-18,72.6,67.6,62.3,66.5,64.3,60.6,96,89,79,30.05,29.99,3,0,7,0.16
2013-5-19,68.4,66.1,62.7,67.0,64.6,61.5,97,95,92,30.08,29.95,3,0,8,0.50
2013-5-20,84.5,71.4,61.8,71.4,66.0,60.6,97,85,58,30.08,29.96,3,0,7,0.00
2013-5-21,86.8,74.4,64.1,73.3,67.3,62.3,97,80,53,30.00,29.85,2,0,6,0.01
2013-5-22,87.8,74.8,64.7,69.0,64.9,61.6,95,74,44,29.94,29.81,6,0,10,0.00
2013-5-23,83.8,74.0,67.5,65.3,61.8,55.6,91,68,44,29.94,29.86,7,1,15,0.00
2013-5-24,74.9,66.5,59.4,56.9,51.6,45.2,81,60,41,30.18,29.94,6,2,21,0.00
2013-5-25,79.6,63.7,49.1,51.2,46.2,40.8,87,56,27,30.29,30.16,3,0,10,0.00
2013-5-26,84.5,66.9,52.2,56.2,51.0,45.4,90,62,28,30.23,30.12,5,0,8,0.00
2013-5-27,86.0,70.5,57.0,62.5,57.0,53.0,89,66,34,30.20,30.06,3,0,9,0.00
2013-5-28,85.9,73.6,63.8,63.4,59.4,53.0,86,64,35,30.15,30.06,3,0,8,0.00
2013-5-29,83.0,72.8,63.5,64.9,62.4,59.6,89,71,48,30.18,30.07,3,0,8,0.00
2013-5-30,82.1,73.6,66.1,67.0,64.6,62.0,91,75,54,30.19,30.06,2,0,10,0.00
2013-5-31,85.3,75.7,68.1,67.2,64.6,61.4,88,70,47,30.15,30.02,3,0,9,0.00
2013-6-1,84.3,75.2,67.9,69.7,66.4,63.8,92,75,55,30.05,29.94,3,0,8,0.03
2013-6-2,85.3,73.0,67.3,73.2,68.4,65.7,95,86,60,29.95,29.81,5,0,8,0.55
2013-6-3,83.3,72.6,66.7,71.3,67.1,65.1,96,84,59,29.92,29.83,5,0,8,0.00
2013-6-4,86.4,74.4,64.0,68.3,65.3,61.7,94,75,48,29.97,29.89,2,0,7,0.00
2013-6-5,83.8,73.7,68.2,72.4,69.0,66.7,96,86,65,29.98,29.83,3,0,7,0.52
2013-6-6,78.4,71.3,67.0,71.8,68.3,65.8,97,91,72,29.88,29.71,2,0,5,0.01
2013-6-7,84.6,71.0,66.8,70.0,67.0,65.0,96,88,60,29.82,29.65,5,0,15,0.65
2013-6-8,81.2,72.0,65.4,69.8,66.7,64.2,97,85,59,30.03,29.82,3,0,9,0.00
2013-6-9,78.8,71.1,67.4,71.7,68.7,65.6,96,92,76,30.06,29.96,2,0,9,0.61
2013-6-10,76.8,71.3,64.9,71.9,68.5,62.9,97,91,77,30.01,29.90,5,0,12,0.07
2013-6-11,87.7,77.9,71.0,74.4,71.6,69.3,95,82,60,30.01,29.91,7,1,16,0.02
2013-6-12,91.1,80.4,71.4,77.1,73.6,69.2,95,81,59,30.01,29.91,5,0,9,0.02
2013-6-13,91.4,78.3,68.1,73.9,70.8,66.0,96,80,50,29.92,29.68,12,2,35,1.01
2013-6-14,83.8,72.8,64.4,68.5,64.4,60.2,96,77,47,29.96,29.79,6,1,6,0.00
2013-6-15,84.4,73.1,63.1,65.4,62.6,59.8,94,72,45,30.09,29.95,5,1,5,0.00
2013-6-16,86.0,73.6,62.6,72.5,66.5,60.3,94,80,54,30.11,29.96,8,1,8,0.78
2013-6-17,84.0,71.4,67.1,74.5,68.8,65.2,97,92,69,30.06,29.90,6,0,6,0.53
2013-6-18,83.2,72.0,67.4,74.9,69.6,66.2,97,93,68,29.93,29.81,12,2,12,1.02
2013-6-19,78.3,72.0,67.1,70.6,68.2,65.9,97,88,73,30.04,29.86,5,1,5,0.01
2013-6-20,81.5,72.8,65.6,69.3,66.6,63.9,96,82,61,30.15,30.03,5,1,5,0.00
2013-6-21,83.1,73.7,65.4,67.9,65.3,63.2,95,76,55,30.20,30.10,7,1,7,0.00
2013-6-22,83.8,73.3,64.7,67.7,64.5,61.8,95,76,51,30.18,30.04,6,1,6,0.00
2013-6-23,83.9,74.3,66.5,70.9,68.0,64.4,95,81,61,30.16,30.05,6,1,6,0.00
2013-6-24,78.7,72.7,68.5,74.0,69.9,66.5,95,91,76,30.18,30.07,7,1,7,0.23
2013-6-25,85.6,74.5,66.8,75.7,69.8,65.3,97,86,61,30.13,30.00,10,1,10,0.02
2013-6-26,87.7,77.0,68.6,75.4,71.5,66.9,97,84,63,30.04,29.89,13,1,13,0.13
2013-6-27,84.9,78.4,73.4,75.7,72.6,68.4,94,83,70,29.94,29.76,14,2,14,0.04
2013-6-28,91.3,79.2,70.1,77.5,70.7,65.4,97,78,51,29.82,29.60,17,2,17,0.01
2013-6-29,88.7,77.3,69.1,70.5,67.2,63.5,95,73,44,29.67,29.60,9,1,9,0.00
2013-6-30,85.7,74.5,65.5,70.4,66.3,62.7,96,77,48,29.75,29.64,4,0,4,0.36
2013-7-1,77.6,71.3,66.3,71.8,68.4,64.8,97,91,76,29.87,29.73,4,0,12,0.07
2013-7-2,82.8,74.9,67.5,71.7,68.7,65.7,96,82,60,30.02,29.86,9,1,9,0.00
2013-7-3,73.8,70.1,66.7,70.9,68.0,65.6,97,93,83,30.12,30.00,5,0,5,2.23
2013-7-4,72.7,69.6,66.7,72.0,68.7,65.8,98,97,97,30.13,30.03,7,1,7,0.52
2013-7-5,77.4,70.9,68.3,73.4,69.6,67.4,97,96,83,30.16,30.08,7,0,7,0.40
2013-7-6,77.5,72.3,68.9,75.8,71.0,68.0,98,96,90,30.12,30.03,4,0,4,0.56
2013-7-7,76.4,72.7,70.5,73.1,71.1,69.6,97,95,86,30.14,30.06,4,0,4,0.11
2013-7-8,86.2,76.5,69.9,76.1,71.8,68.8,97,87,62,30.16,30.04,7,0,7,0.03
2013-7-9,88.1,77.4,71.6,76.1,73.0,70.4,97,87,63,30.13,30.00,6,1,6,0.00
2013-7-10,88.8,77.4,72.4,76.8,73.0,71.2,97,87,59,30.06,29.91,6,1,6,0.00
2013-7-11,78.8,73.5,69.7,73.7,70.9,67.6,95,92,81,29.93,29.83,5,0,5,0.01
2013-7-12,87.2,75.4,69.9,75.8,70.8,65.5,97,86,64,29.90,29.80,9,1,9,0.00
2013-7-13,77.2,71.7,68.0,71.3,68.4,65.8,94,89,81,30.02,29.90,6,1,6,0.00
2013-7-14,80.4,74.0,70.6,73.7,71.2,69.3,97,91,77,30.16,30.00,7,2,7,0.18
2013-7-15,83.0,74.7,70.1,73.7,70.9,69.0,97,88,70,30.24,30.14,10,2,10,0.01
2013-7-16,86.5,77.0,70.1,73.0,70.2,67.8,96,81,59,30.27,30.18,7,1,7,0.00
2013-7-17,91.0,75.8,68.4,76.6,70.4,66.4,96,84,56,30.24,30.08,9,1,9,0.29
2013-7-18,87.2,75.9,67.1,75.6,70.3,65.8,97,84,61,30.17,30.01,6,0,6,0.06
2013-7-19,85.9,77.6,71.5,76.2,72.4,69.7,96,85,65,30.07,29.93,7,0,7,0.00
2013-7-20,86.9,74.4,70.2,76.6,70.9,68.4,96,89,64,29.99,29.90,4,0,4,0.11
2013-7-21,86.0,74.7,69.4,75.5,71.3,68.2,97,90,66,30.00,29.87,8,1,8,0.11
2013-7-22,82.6,74.9,68.9,76.3,71.4,67.7,97,89,74,29.98,29.83,8,2,8,0.05
2013-7-23,80.8,74.7,70.8,72.9,70.2,68.4,94,86,70,29.94,29.79,12,3,12,0.00
2013-7-24,82.3,75.1,70.1,74.8,71.1,68.2,95,88,75,29.85,29.76,8,2,8,0.00
2013-7-25,87.7,76.5,68.6,73.1,69.3,66.8,95,80,56,29.95,29.79,10,1,10,0.00
2013-7-26,85.3,74.9,67.4,75.2,70.0,65.2,96,86,65,30.01,29.92,6,0,6,0.00
2013-7-27,79.0,73.7,69.6,72.0,69.4,67.7,96,87,69,29.96,29.86,7,1,7,0.00
2013-7-28,87.5,75.1,68.1,72.8,69.4,66.3,96,84,56,29.99,29.89,7,1,8,0.00
2013-7-29,85.5,73.5,66.6,69.7,63.9,53.4,92,74,36,30.12,29.98,6,1,6,0.00
2013-7-30,88.3,73.9,61.0,71.4,63.7,57.9,95,74,39,30.17,30.06,4,0,4,0.00
2013-7-31,74.7,72.4,70.0,72.5,70.2,67.7,97,93,83,30.10,29.93,8,0,8,0.74
2013-8-1,84.0,75.0,70.7,76.0,71.6,68.7,97,90,68,29.95,29.87,7,1,7,0.02
2013-8-2,87.7,75.2,66.5,72.3,68.5,65.0,97,81,52,29.99,29.88,6,0,6,0.00
2013-8-3,85.2,75.3,66.3,73.5,69.5,64.5,96,83,61,30.02,29.95,10,1,10,0.00
2013-8-4,87.5,78.0,73.1,75.2,71.4,67.8,94,81,56,29.99,29.91,8,2,8,0.00
2013-8-5,84.5,75.1,67.6,74.0,68.9,64.9,92,82,64,30.00,29.92,5,0,5,0.00
2013-8-6,86.7,76.7,70.7,74.9,70.7,66.9,95,83,61,29.97,29.90,10,0,10,0.30
2013-8-7,80.7,74.4,72.0,76.1,72.8,70.6,97,95,83,30.00,29.92,7,0,7,0.16
2013-8-8,79.3,75.1,72.5,76.3,73.4,71.6,98,95,85,30.01,29.95,5,0,5,0.01
2013-8-9,88.8,78.5,72.1,76.5,73.6,70.9,97,86,60,30.04,29.96,8,0,8,0.00
2013-8-10,90.3,78.1,72.1,76.5,73.2,70.6,96,86,57,30.08,30.01,10,1,10,0.01
2013-8-11,90.1,78.7,71.4,74.9,72.3,70.2,97,82,55,30.12,30.00,8,1,8,0.00
2013-8-12,84.3,75.4,71.5,77.6,72.5,70.1,97,91,74,30.07,29.95,16,1,16,0.43
2013-8-13,84.3,75.5,69.8,75.1,71.8,68.9,98,89,69,29.98,29.83,8,1,8,0.01
2013-8-14,78.4,74.0,69.8,72.9,70.6,65.8,95,89,80,29.97,29.84,5,0,5,0.00
2013-8-15,72.4,69.2,67.3,66.6,62.8,58.6,91,80,63,30.04,29.95,8,2,8,0.00
2013-8-16,67.3,65.2,62.2,63.1,61.3,59.8,95,87,80,30.08,29.99,7,2,7,0.00
2013-8-17,65.7,63.9,62.1,64.0,61.5,59.0,97,92,82,30.11,30.05,6,2,6,0.05
2013-8-18,72.8,68.4,64.9,70.3,67.2,64.0,98,96,90,30.16,30.07,4,0,4,0.07
2013-8-19,77.1,71.3,68.2,73.4,69.8,67.3,98,95,86,30.11,30.00,4,0,4,0.62
2013-8-20,77.5,73.0,70.0,73.3,70.8,68.8,97,93,84,30.14,30.04,4,0,4,0.00
2013-8-21,80.7,74.0,69.3,74.2,71.1,67.8,97,91,78,30.19,30.06,6,0,6,0.00
2013-8-22,86.2,75.1,69.8,74.5,71.4,68.6,97,89,64,30.13,30.00,5,0,5,0.06
2013-8-23,87.5,75.7,67.5,75.1,71.0,66.5,98,86,60,30.05,29.93,5,1,5,0.00
2013-8-24,80.1,73.5,68.4,71.7,68.7,65.9,97,86,70,30.21,29.98,9,1,9,0.14
2013-8-25,79.0,71.8,65.3,67.2,63.5,61.1,90,76,56,30.32,30.20,6,1,6,0.00
2013-8-26,79.6,69.5,60.3,66.8,62.5,58.5,96,80,58,30.28,30.11,3,0,3,0.00
2013-8-27,84.3,72.1,61.6,72.1,66.1,59.9,96,83,55,30.14,30.00,6,0,6,0.00
2013-8-28,87.5,75.7,66.8,74.5,70.0,65.0,97,84,59,30.03,29.93,5,0,5,0.00
2013-8-29,89.9,79.1,71.3,76.2,72.3,69.3,94,81,58,29.97,29.88,9,2,9,0.00
2013-8-30,83.1,77.0,72.8,76.3,73.4,71.0,95,89,77,29.97,29.88,4,0,4,0.00
2013-8-31,89.5,77.4,71.9,76.7,72.6,69.5,96,86,60,29.93,29.82,9,0,9,0.05
2013-9-1,81.2,73.9,69.1,76.3,71.5,67.9,98,92,84,29.90,29.81,7,0,7,0.01
2013-9-2,78.2,72.3,69.4,73.3,70.2,68.2,97,93,81,29.94,29.83,9,1,9,0.11
2013-9-3,85.8,76.3,70.5,74.5,71.2,69.1,97,85,59,29.94,29.84,8,1,8,0.00
2013-9-4,86.2,74.7,66.3,71.7,67.5,63.4,96,80,49,30.05,29.92,6,0,6,0.00
2013-9-5,85.3,74.6,67.1,70.8,67.9,65.3,95,81,54,30.09,30.01,4,0,4,0.00
2013-9-6,84.6,73.7,65.8,69.8,66.9,63.8,96,81,58,30.11,30.01,5,1,5,0.00
2013-9-7,84.0,73.3,64.5,69.8,66.1,62.5,96,80,54,30.09,29.96,4,0,4,0.00
2013-9-8,87.4,74.8,64.8,72.3,67.7,62.9,97,80,54,29.99,29.90,7,1,7,0.00
2013-9-9,86.1,76.0,67.7,71.6,68.8,65.6,94,80,57,30.07,29.94,5,0,5,0.00
2013-9-10,85.9,75.6,67.6,72.2,69.1,65.6,96,81,56,30.17,30.07,5,1,5,0.00
2013-9-11,87.1,75.5,66.5,71.0,67.1,63.1,96,78,45,30.18,30.05,0,0,0,0.00
2013-9-12,87.2,75.9,66.1,71.5,67.8,64.0,95,78,54,30.07,29.86,5,0,5,0.00
2013-9-13,85.5,73.8,63.4,68.6,64.2,56.0,93,74,46,29.88,29.78,12,2,12,0.00
2013-9-14,78.4,66.3,54.5,61.6,56.4,51.9,93,73,47,30.04,29.86,6,1,6,0.00
2013-9-15,80.3,70.1,61.7,70.5,64.7,58.7,92,83,64,30.13,30.04,5,1,5,0.00
2013-9-16,85.8,73.4,65.9,70.4,64.7,58.6,95,77,44,30.10,30.01,6,1,6,0.00
2013-9-17,75.8,69.9,66.0,63.5,61.9,60.0,88,76,62,30.19,30.06,8,2,8,0.00
2013-9-18,73.6,68.1,64.1,63.8,60.7,57.6,90,77,67,30.20,30.09,5,1,5,0.00
2013-9-19,81.4,69.5,59.4,66.9,62.1,57.1,95,79,54,30.16,30.04,1,0,1,0.00
2013-9-20,83.6,72.3,62.0,67.8,64.1,60.0,95,77,50,30.05,29.86,7,0,7,0.00
2013-9-21,71.9,67.3,63.6,68.9,65.3,62.3,96,93,83,29.89,29.68,12,0,12,1.11
2013-9-22,77.1,65.5,56.8,65.2,60.5,55.5,97,85,56,29.85,29.73,4,0,4,0.00
2013-9-23,77.3,66.7,58.3,64.2,60.0,56.3,96,80,56,29.98,29.85,7,1,7,0.00
2013-9-24,68.2,65.9,64.0,63.9,62.1,59.5,96,88,78,29.99,29.85,6,1,6,0.02
2013-9-25,64.7,63.4,61.8,63.8,62.4,60.8,97,97,95,29.86,29.80,4,1,4,0.88
2013-9-26,74.2,66.1,58.9,67.3,62.7,57.8,97,89,72,29.98,29.85,5,0,5,0.00
2013-9-27,75.3,67.0,58.5,64.7,59.9,56.3,94,79,57,30.11,29.98,5,1,5,0.00
2013-9-28,72.4,63.7,57.3,59.7,57.2,55.3,93,81,58,30.19,30.08,9,1,9,0.00
2013-9-29,101.1,62.0,55.0,77.5,57.1,52.7,94,85,49,30.13,30.01,4,1,4,0.04
2013-9-30,73.3,63.2,54.7,61.3,57.7,53.3,97,83,57,30.07,29.97,5,0,5,0.00
2013-10-1,75.6,65.4,56.2,65.9,60.4,54.5,97,85,66,30.14,30.02,6,0,6,0.00
2013-10-2,78.7,67.8,57.2,68.1,61.9,55.5,97,83,58,30.14,30.03,6,0,6,0.00
2013-10-3,80.4,70.1,62.9,65.4,63.1,60.4,95,80,51,30.11,30.02,7,0,7,0.00
2013-10-4,80.3,69.1,60.0,69.1,63.3,58.3,97,83,58,30.13,30.05,4,0,4,0.00
2013-10-5,82.2,70.7,61.1,67.4,64.0,59.4,97,81,55,30.10,29.97,8,0,8,0.00
2013-10-6,79.7,68.6,61.4,68.8,63.9,59.6,96,86,61,30.00,29.82,7,1,7,1.27
2013-10-7,69.6,62.3,56.2,64.4,58.1,52.2,97,87,68,29.93,29.79,12,2,12,0.20
2013-10-8,71.4,62.7,55.1,59.1,55.5,51.7,93,78,63,30.11,29.93,8,2,8,0.00
2013-10-9,71.5,62.3,54.8,59.6,52.5,44.7,91,72,51,30.17,30.08,7,1,7,0.00
2013-10-10,75.7,63.0,53.2,61.4,56.5,51.5,96,81,55,30.12,29.99,12,1,12,0.00
2013-10-11,75.6,63.3,53.1,60.4,56.0,51.4,96,79,50,30.04,29.94,13,1,13,0.00
2013-10-12,77.1,64.4,54.8,62.8,57.8,53.0,96,81,55,30.07,29.97,10,1,10,0.00
2013-10-13,77.3,66.1,57.0,65.2,60.0,55.3,95,82,55,30.16,30.05,4,0,4,0.00
2013-10-14,71.2,65.4,59.8,63.1,61.1,58.1,96,86,72,30.18,30.08,5,1,5,0.00
2013-10-15,65.9,63.3,61.8,60.8,59.5,58.4,93,88,79,30.13,30.02,6,0,6,0.00
2013-10-16,71.3,63.8,55.9,64.0,59.6,54.2,97,87,68,30.05,29.93,5,0,5,0.00
2013-10-17,67.6,64.8,59.4,66.7,63.4,58.0,97,96,92,29.94,29.85,7,0,7,0.35
2013-10-18,66.8,58.0,51.8,58.0,54.2,50.7,96,88,63,30.00,29.90,6,1,6,0.00
2013-10-19,61.6,57.3,54.2,57.5,55.0,52.1,96,92,81,29.96,29.90,8,1,8,0.02
2013-10-20,63.4,52.6,44.0,52.1,45.9,40.0,96,80,43,30.05,29.96,5,1,5,0.00
2013-10-21,68.3,55.0,44.0,57.9,50.2,42.1,97,85,60,30.12,30.00,8,0,8,0.00
2013-10-22,68.2,59.9,55.6,58.3,54.4,47.2,97,84,50,30.02,29.82,9,1,9,0.02
2013-10-23,58.0,52.2,42.0,52.0,44.2,35.8,93,76,47,30.08,29.82,15,3,15,0.00
2013-10-24,59.9,47.4,37.6,45.8,39.8,35.8,95,77,44,30.20,30.06,10,1,10,0.00
2013-10-25,53.8,44.6,35.0,42.8,33.3,26.5,87,66,38,30.38,30.20,12,2,12,0.00
2013-10-26,57.7,44.1,33.3,44.0,36.0,30.9,94,76,42,30.34,30.16,9,1,9,0.00
2013-10-27,65.0,53.0,40.6,55.9,47.5,38.3,94,83,62,30.17,30.09,12,1,12,0.00
2013-10-28,62.9,56.9,53.2,58.5,54.7,51.6,97,92,79,30.26,30.11,7,0,7,0.15
2013-10-29,71.2,61.1,52.6,61.2,56.4,51.5,97,86,63,30.31,30.21,5,0,5,0.00
2013-10-30,74.7,62.9,53.5,61.0,57.0,52.0,97,82,56,30.28,30.13,7,1,7,0.00
2013-10-31,72.2,64.6,56.9,63.7,59.4,54.5,95,84,73,30.15,29.82,12,1,12,0.00
2013-11-1,72.5,65.4,56.2,65.1,58.1,47.9,97,79,46,29.83,29.68,22,3,22,0.59
2013-11-2,66.5,55.2,47.8,52.5,45.7,39.7,94,72,41,30.05,29.79,17,2,17,0.03
2013-11-3,60.3,50.0,42.0,45.7,41.4,35.8,93,74,43,30.29,30.05,9,1,9,0.00
2013-11-4,59.5,49.9,41.9,44.0,40.2,37.9,92,71,46,30.43,30.30,9,2,10,0.00
2013-11-5,60.7,51.3,43.4,46.2,38.7,34.1,80,63,44,30.46,30.32,10,3,10,0.00
2013-11-6,69.4,59.0,50.6,59.1,53.7,46.1,94,83,68,30.33,30.09,7,2,7,0.00
2013-11-7,60.7,54.9,43.4,59.2,48.9,34.8,96,81,61,30.20,30.01,15,3,15,0.13
2013-11-8,58.0,46.0,36.1,37.7,33.1,26.0,86,64,31,30.34,30.20,9,2,9,0.00
2013-11-9,56.3,46.0,35.6,44.0,37.9,33.2,93,75,45,30.36,30.21,5,0,5,0.00
2013-11-10,67.4,53.7,44.2,45.5,42.0,39.1,91,68,40,30.28,30.18,12,1,12,0.00
2013-11-11,61.8,49.5,37.9,41.7,37.2,31.3,92,66,34,30.31,30.17,8,1,8,0.00
2013-11-12,59.2,43.8,31.7,43.9,33.7,18.3,92,69,45,30.45,30.13,23,5,23,0.00
2013-11-13,46.8,35.0,25.3,25.7,20.0,12.7,83,58,27,30.59,30.45,8,1,8,0.00
2013-11-14,55.7,39.0,25.8,29.3,24.2,15.9,90,62,21,30.51,30.31,5,0,6,0.00
2013-11-15,48.7,44.5,35.2,46.6,39.6,28.4,96,84,53,30.33,30.16,5,0,5,0.13
2013-11-16,59.8,54.0,47.6,57.0,52.5,46.5,97,95,88,30.23,30.12,6,1,6,0.01
2013-11-17,66.6,60.9,56.9,66.0,59.6,55.0,98,96,93,30.16,29.90,9,1,9,0.03
2013-11-18,67.5,60.7,49.7,66.9,48.3,33.3,98,68,35,30.03,29.85,14,4,15,0.04
2013-11-19,57.0,49.0,40.5,40.3,34.3,30.1,79,58,41,30.16,30.01,9,2,9,0.00
2013-11-20,53.6,47.5,41.2,36.0,32.6,29.0,68,56,48,30.33,30.16,12,4,12,0.00
2013-11-21,54.4,50.1,47.3,47.1,42.4,34.4,90,75,57,30.40,30.30,12,3,12,0.00
2013-11-22,61.9,55.6,50.0,57.7,53.1,47.0,96,91,84,30.34,30.16,4,0,4,0.05
2013-11-23,58.2,50.7,38.7,57.1,45.4,27.9,96,82,62,30.25,30.11,12,4,12,0.00
2013-11-24,43.4,35.5,28.4,28.2,20.3,15.0,74,55,34,30.48,30.24,12,3,12,0.00
2013-11-25,42.1,36.0,30.0,31.4,18.6,10.5,85,51,33,30.49,30.22,10,4,10,0.00
2013-11-26,47.8,39.6,33.4,47.0,38.3,30.3,97,95,82,30.22,29.67,12,3,12,0.96
2013-11-27,42.4,33.6,27.0,41.3,28.1,19.1,96,80,64,30.27,29.67,23,8,23,0.13
2013-11-28,46.0,32.2,22.4,28.4,22.5,18.5,88,69,40,30.49,30.27,7,1,7,0.00
2013-11-29,56.2,39.4,25.2,34.6,27.0,18.7,94,67,27,30.54,30.44,6,1,6,0.00
2013-11-30,49.0,41.9,35.7,30.4,28.1,26.5,72,59,43,30.56,30.34,12,3,10,0.00
2013-12-1,55.6,45.9,40.2,40.6,34.5,27.3,87,65,55,30.35,30.02,6,1,6,0.00
2013-12-2,50.6,47.0,42.6,49.8,45.4,38.7,97,94,86,30.02,29.82,1,0,1,0.32
2013-12-3,55.0,52.5,50.3,54.2,51.7,49.5,98,97,97,29.89,29.82,4,0,4,0.17
2013-12-4,67.8,59.5,53.7,64.1,58.0,52.9,98,95,82,30.01,29.89,4,0,4,0.01
2013-12-5,70.0,66.1,63.2,67.5,65.1,62.3,98,97,91,30.05,29.94,12,1,16,0.72
2013-12-6,73.3,67.4,53.7,67.7,64.9,52.2,98,92,80,30.03,29.91,14,3,14,0.36
2013-12-7,53.6,43.1,39.6,52.2,41.2,38.6,97,93,86,30.30,30.02,13,3,13,0.27
2013-12-8,48.4,43.9,39.8,47.9,43.1,38.9,98,97,96,30.29,30.18,12,4,12,0.03
2013-12-9,48.1,43.8,39.5,47.6,43.2,38.7,98,98,97,30.19,30.01,9,1,9,0.71
2013-12-10,48.6,42.2,30.4,48.1,38.8,27.8,98,88,68,30.34,29.95,21,3,21,0.25
2013-12-11,49.7,37.5,26.9,35.3,29.6,25.4,95,76,41,30.46,30.32,5,1,5,0.00
2013-12-12,42.4,35.6,29.8,31.4,24.3,19.1,84,65,42,30.47,30.36,12,3,12,0.00
2013-12-13,53.0,40.7,27.1,32.1,23.4,17.0,85,53,24,30.41,30.16,5,1,5,0.00
2013-12-14,49.2,46.5,44.0,48.6,42.3,29.9,98,86,54,30.18,29.82,12,1,12,0.53
2013-12-15,49.6,38.6,31.9,49.1,35.0,28.5,98,87,79,30.20,29.84,17,5,17,0.03
2013-12-16,50.4,38.1,30.4,34.9,30.9,27.9,92,77,46,30.28,30.18,12,2,12,0.00
2013-12-17,58.9,44.3,29.6,38.8,34.1,28.0,96,71,42,30.24,30.08,21,3,21,0.00
2013-12-18,49.7,41.0,32.4,31.3,24.5,17.6,80,54,30,30.33,30.19,14,2,14,0.00
2013-12-19,60.2,43.2,28.8,32.8,27.6,22.8,90,60,25,30.34,30.20,6,0,6,0.00
2013-12-20,60.2,48.8,36.1,51.3,42.0,30.2,89,78,59,30.23,30.10,4,1,4,0.00
2013-12-21,68.9,60.6,52.5,65.0,58.2,50.4,98,92,85,30.11,29.89,12,2,12,0.00
2013-12-22,69.0,60.5,55.7,65.1,58.8,54.8,98,94,86,30.06,29.85,10,2,10,2.23
2013-12-23,56.0,47.1,34.8,55.4,44.6,30.7,98,91,82,30.25,30.01,13,4,13,0.00
2013-12-24,37.7,32.9,28.1,30.8,25.3,20.9,88,74,55,30.42,30.24,14,5,14,0.00
2013-12-25,42.1,32.9,25.4,26.9,22.5,17.6,88,67,44,30.50,30.35,9,1,9,0.00
2013-12-26,51.2,39.5,29.7,30.2,27.4,23.5,84,63,41,30.40,30.28,7,1,7,0.00
2013-12-27,49.9,37.8,29.1,31.8,28.3,26.1,90,71,41,30.47,30.33,7,1,7,0.00
2013-12-28,45.2,38.1,31.0,38.9,33.4,28.1,95,84,56,30.41,30.00,12,2,12,0.44
2013-12-29,47.1,43.5,40.0,45.0,42.0,38.8,97,94,91,30.05,29.86,12,2,12,0.08
2013-12-30,46.6,42.7,39.4,42.6,40.3,35.9,97,91,84,30.22,30.04,10,2,10,0.00
2013-12-31,43.8,38.7,32.3,35.9,31.0,24.3,91,75,46,30.39,30.20,13,2,13,0.00
2014-1-1,47.4,39.7,31.3,38.8,32.6,28.3,94,77,57,30.37,30.13,2,0,2,0.00
2014-1-2,49.4,41.1,25.1,48.6,37.8,17.1,97,88,70,30.14,29.77,20,4,20,0.27